sensor_id;sensor_type;location;lat;lon;timestamp;pressure;altitude;pressure_sealevel;temperature;humidity
58072;BME280;60383;46.626;18.866;2023-04-28T00:02:13;100971.31;;;7.19;59.10
58072;BME280;60383;46.626;18.866;2023-04-28T00:04:38;100977.16;;;7.38;58.43
58072;BME280;60383;46.626;18.866;2023-04-28T00:07:04;100985.81;;;7.54;58.47
58072;BME280;60383;46.626;18.866;2023-04-28T00:09:30;100980.84;;;7.25;58.91
58072;BME280;60383;46.626;18.866;2023-04-28T00:11:55;100980.72;;;7.27;59.06
58072;BME280;60383;46.626;18.866;2023-04-28T00:14:21;100990.63;;;7.16;59.74
58072;BME280;60383;46.626;18.866;2023-04-28T00:16:46;100988.50;;;7.20;59.65
58072;BME280;60383;46.626;18.866;2023-04-28T00:19:12;100989.50;;;7.08;61.25
58072;BME280;60383;46.626;18.866;2023-04-28T00:21:37;100988.38;;;7.22;61.77
58072;BME280;60383;46.626;18.866;2023-04-28T00:24:04;100988.16;;;7.13;61.04
58072;BME280;60383;46.626;18.866;2023-04-28T00:26:30;100981.94;;;7.11;61.12
58072;BME280;60383;46.626;18.866;2023-04-28T00:28:55;100980.19;;;7.10;61.42
58072;BME280;60383;46.626;18.866;2023-04-28T00:31:20;100976.84;;;7.18;61.20
58072;BME280;60383;46.626;18.866;2023-04-28T00:33:46;100972.53;;;7.04;61.92
58072;BME280;60383;46.626;18.866;2023-04-28T00:36:11;100971.66;;;7.15;61.89
58072;BME280;60383;46.626;18.866;2023-04-28T00:38:37;100975.38;;;7.02;62.36
58072;BME280;60383;46.626;18.866;2023-04-28T00:41:03;100972.38;;;6.83;63.54
58072;BME280;60383;46.626;18.866;2023-04-28T00:43:28;100976.06;;;6.82;63.91
58072;BME280;60383;46.626;18.866;2023-04-28T00:45:54;100979.28;;;6.76;63.71
58072;BME280;60383;46.626;18.866;2023-04-28T00:48:20;100966.44;;;6.53;64.54
58072;BME280;60383;46.626;18.866;2023-04-28T00:50:47;100957.78;;;6.60;64.11
58072;BME280;60383;46.626;18.866;2023-04-28T00:53:13;100962.66;;;6.67;64.47
58072;BME280;60383;46.626;18.866;2023-04-28T00:55:38;100967.78;;;6.48;64.88
58072;BME280;60383;46.626;18.866;2023-04-28T00:58:05;100968.34;;;6.64;64.93
58072;BME280;60383;46.626;18.866;2023-04-28T01:00:32;100975.66;;;6.64;65.62
58072;BME280;60383;46.626;18.866;2023-04-28T01:02:58;100977.41;;;6.41;66.18
58072;BME280;60383;46.626;18.866;2023-04-28T01:05:24;100970.88;;;6.43;67.20
58072;BME280;60383;46.626;18.866;2023-04-28T01:07:51;100969.44;;;6.62;66.73
58072;BME280;60383;46.626;18.866;2023-04-28T01:10:16;100973.78;;;6.64;67.14
58072;BME280;60383;46.626;18.866;2023-04-28T01:12:42;100970.25;;;6.51;67.93
58072;BME280;60383;46.626;18.866;2023-04-28T01:15:14;100974.59;;;6.53;68.44
58072;BME280;60383;46.626;18.866;2023-04-28T01:17:40;100971.78;;;6.55;69.20
58072;BME280;60383;46.626;18.866;2023-04-28T01:20:06;100979.63;;;6.71;69.60
58072;BME280;60383;46.626;18.866;2023-04-28T01:22:32;100978.94;;;6.56;69.96
58072;BME280;60383;46.626;18.866;2023-04-28T01:24:57;100979.06;;;6.54;70.09
58072;BME280;60383;46.626;18.866;2023-04-28T01:27:24;100973.28;;;6.59;69.76
58072;BME280;60383;46.626;18.866;2023-04-28T01:29:50;100978.84;;;6.58;69.84
58072;BME280;60383;46.626;18.866;2023-04-28T01:32:15;100983.53;;;6.55;69.82
58072;BME280;60383;46.626;18.866;2023-04-28T01:34:41;100981.28;;;6.49;69.65
58072;BME280;60383;46.626;18.866;2023-04-28T01:37:06;100987.16;;;6.67;71.26
58072;BME280;60383;46.626;18.866;2023-04-28T01:39:32;100986.81;;;6.72;71.17
58072;BME280;60383;46.626;18.866;2023-04-28T01:41:57;100983.84;;;6.39;70.87
58072;BME280;60383;46.626;18.866;2023-04-28T01:44:23;100986.84;;;6.48;69.88
58072;BME280;60383;46.626;18.866;2023-04-28T01:46:48;100988.03;;;6.44;70.66
58072;BME280;60383;46.626;18.866;2023-04-28T01:49:14;100988.59;;;6.25;71.10
58072;BME280;60383;46.626;18.866;2023-04-28T01:51:39;100983.97;;;6.38;71.53
58072;BME280;60383;46.626;18.866;2023-04-28T01:54:06;100979.31;;;6.51;72.33
58072;BME280;60383;46.626;18.866;2023-04-28T01:56:31;100984.38;;;6.56;72.68
58072;BME280;60383;46.626;18.866;2023-04-28T01:58:57;100979.88;;;6.44;72.70
58072;BME280;60383;46.626;18.866;2023-04-28T02:01:22;100978.31;;;6.52;71.37
58072;BME280;60383;46.626;18.866;2023-04-28T02:03:48;100987.69;;;6.48;70.29
58072;BME280;60383;46.626;18.866;2023-04-28T02:06:14;100987.06;;;6.45;70.39
58072;BME280;60383;46.626;18.866;2023-04-28T02:08:40;100985.63;;;6.52;69.98
58072;BME280;60383;46.626;18.866;2023-04-28T02:11:05;100987.53;;;6.38;70.18
58072;BME280;60383;46.626;18.866;2023-04-28T02:13:30;100979.66;;;6.47;69.44
58072;BME280;60383;46.626;18.866;2023-04-28T02:15:59;100983.88;;;6.51;69.38
58072;BME280;60383;46.626;18.866;2023-04-28T02:18:25;100985.75;;;6.50;69.36
58072;BME280;60383;46.626;18.866;2023-04-28T02:20:51;100984.50;;;6.54;68.13
58072;BME280;60383;46.626;18.866;2023-04-28T02:23:16;100988.63;;;6.60;68.68
58072;BME280;60383;46.626;18.866;2023-04-28T02:25:42;100992.63;;;6.43;68.96
58072;BME280;60383;46.626;18.866;2023-04-28T02:28:07;100993.78;;;6.52;68.45
58072;BME280;60383;46.626;18.866;2023-04-28T02:30:33;100998.13;;;6.54;68.42
58072;BME280;60383;46.626;18.866;2023-04-28T02:32:58;100993.19;;;6.60;67.63
58072;BME280;60383;46.626;18.866;2023-04-28T02:35:24;100996.44;;;6.65;68.16
58072;BME280;60383;46.626;18.866;2023-04-28T02:37:49;100999.25;;;6.63;67.65
58072;BME280;60383;46.626;18.866;2023-04-28T02:40:15;100986.75;;;6.61;66.96
58072;BME280;60383;46.626;18.866;2023-04-28T02:42:40;100986.13;;;6.57;67.13
58072;BME280;60383;46.626;18.866;2023-04-28T02:45:06;100990.94;;;6.53;67.30
58072;BME280;60383;46.626;18.866;2023-04-28T02:47:32;100997.72;;;6.48;67.66
58072;BME280;60383;46.626;18.866;2023-04-28T02:49:57;100988.84;;;6.33;67.63
58072;BME280;60383;46.626;18.866;2023-04-28T02:52:23;100980.66;;;6.21;68.81
58072;BME280;60383;46.626;18.866;2023-04-28T02:54:48;100982.91;;;6.28;68.58
58072;BME280;60383;46.626;18.866;2023-04-28T02:57:18;100986.78;;;6.36;68.18
58072;BME280;60383;46.626;18.866;2023-04-28T02:59:44;100983.84;;;6.39;67.63
58072;BME280;60383;46.626;18.866;2023-04-28T03:02:10;100989.44;;;6.49;67.15
58072;BME280;60383;46.626;18.866;2023-04-28T03:04:36;100999.44;;;6.49;67.04
58072;BME280;60383;46.626;18.866;2023-04-28T03:07:02;100997.72;;;6.48;66.84
58072;BME280;60383;46.626;18.866;2023-04-28T03:09:27;100996.13;;;6.45;66.35
58072;BME280;60383;46.626;18.866;2023-04-28T03:11:53;100992.91;;;6.51;66.29
58072;BME280;60383;46.626;18.866;2023-04-28T03:14:18;101001.44;;;6.47;66.05
58072;BME280;60383;46.626;18.866;2023-04-28T03:16:44;100997.44;;;6.39;66.39
58072;BME280;60383;46.626;18.866;2023-04-28T03:19:09;100999.53;;;6.36;66.11
58072;BME280;60383;46.626;18.866;2023-04-28T03:21:35;100989.19;;;6.28;66.29
58072;BME280;60383;46.626;18.866;2023-04-28T03:24:00;100996.47;;;6.16;66.67
58072;BME280;60383;46.626;18.866;2023-04-28T03:26:26;101003.28;;;6.22;67.21
58072;BME280;60383;46.626;18.866;2023-04-28T03:28:51;101000.53;;;6.22;66.99
58072;BME280;60383;46.626;18.866;2023-04-28T03:31:17;100998.06;;;6.19;66.90
58072;BME280;60383;46.626;18.866;2023-04-28T03:33:42;100992.47;;;6.33;66.35
58072;BME280;60383;46.626;18.866;2023-04-28T03:36:09;100987.25;;;6.30;66.11
58072;BME280;60383;46.626;18.866;2023-04-28T03:38:35;100995.56;;;6.40;66.03
58072;BME280;60383;46.626;18.866;2023-04-28T03:41:00;100987.59;;;6.26;65.83
58072;BME280;60383;46.626;18.866;2023-04-28T03:43:26;100985.63;;;6.28;66.00
58072;BME280;60383;46.626;18.866;2023-04-28T03:45:52;100987.22;;;6.54;65.34
58072;BME280;60383;46.626;18.866;2023-04-28T03:48:17;100978.50;;;6.62;65.35
58072;BME280;60383;46.626;18.866;2023-04-28T03:50:43;100976.56;;;6.76;64.72
58072;BME280;60383;46.626;18.866;2023-04-28T03:53:10;100985.22;;;6.81;65.07
58072;BME280;60383;46.626;18.866;2023-04-28T03:55:35;100986.63;;;6.98;64.68
58072;BME280;60383;46.626;18.866;2023-04-28T03:58:01;100987.88;;;7.28;63.96
58072;BME280;60383;46.626;18.866;2023-04-28T04:00:27;100987.28;;;7.47;63.56
58072;BME280;60383;46.626;18.866;2023-04-28T04:02:52;100993.72;;;7.80;62.36
58072;BME280;60383;46.626;18.866;2023-04-28T04:05:18;101000.97;;;8.13;60.50
58072;BME280;60383;46.626;18.866;2023-04-28T04:07:43;101007.84;;;8.40;59.45
58072;BME280;60383;46.626;18.866;2023-04-28T04:10:09;101001.66;;;8.50;59.05
58072;BME280;60383;46.626;18.866;2023-04-28T04:12:34;101004.00;;;8.43;59.98
58072;BME280;60383;46.626;18.866;2023-04-28T04:15:00;100996.09;;;8.40;60.30
58072;BME280;60383;46.626;18.866;2023-04-28T04:17:25;101006.00;;;8.52;60.46
58072;BME280;60383;46.626;18.866;2023-04-28T04:19:51;101008.41;;;8.67;58.73
58072;BME280;60383;46.626;18.866;2023-04-28T04:22:16;101013.06;;;8.76;57.83
58072;BME280;60383;46.626;18.866;2023-04-28T04:24:42;101013.06;;;8.76;58.15
58072;BME280;60383;46.626;18.866;2023-04-28T04:27:07;101010.69;;;8.83;58.88
58072;BME280;60383;46.626;18.866;2023-04-28T04:29:33;101006.75;;;8.54;57.87
58072;BME280;60383;46.626;18.866;2023-04-28T04:31:58;101002.97;;;8.67;58.55
58072;BME280;60383;46.626;18.866;2023-04-28T04:34:24;100999.84;;;8.71;58.19
58072;BME280;60383;46.626;18.866;2023-04-28T04:36:49;100992.34;;;8.73;56.74
58072;BME280;60383;46.626;18.866;2023-04-28T04:39:15;100996.88;;;8.63;57.41
58072;BME280;60383;46.626;18.866;2023-04-28T04:41:40;100998.88;;;8.61;58.11
58072;BME280;60383;46.626;18.866;2023-04-28T04:44:06;101003.16;;;8.75;58.85
58072;BME280;60383;46.626;18.866;2023-04-28T04:46:32;101011.44;;;9.06;59.32
58072;BME280;60383;46.626;18.866;2023-04-28T04:48:57;101008.84;;;9.04;60.38
58072;BME280;60383;46.626;18.866;2023-04-28T04:51:22;101007.09;;;9.24;60.38
58072;BME280;60383;46.626;18.866;2023-04-28T04:53:48;101010.25;;;9.51;61.20
58072;BME280;60383;46.626;18.866;2023-04-28T04:56:13;101007.06;;;9.46;60.66
58072;BME280;60383;46.626;18.866;2023-04-28T04:58:42;101006.13;;;9.56;59.42
58072;BME280;60383;46.626;18.866;2023-04-28T05:01:08;101006.03;;;9.16;60.05
58072;BME280;60383;46.626;18.866;2023-04-28T05:03:34;101009.03;;;8.91;60.56
58072;BME280;60383;46.626;18.866;2023-04-28T05:06:00;101019.66;;;8.29;63.55
58072;BME280;60383;46.626;18.866;2023-04-28T05:08:27;101011.84;;;8.80;62.48
58072;BME280;60383;46.626;18.866;2023-04-28T05:10:52;101011.44;;;9.06;61.32
58072;BME280;60383;46.626;18.866;2023-04-28T05:13:18;101020.66;;;8.72;62.61
58072;BME280;60383;46.626;18.866;2023-04-28T05:15:43;101016.16;;;8.83;62.58
58072;BME280;60383;46.626;18.866;2023-04-28T05:18:09;101021.56;;;9.15;63.50
58072;BME280;60383;46.626;18.866;2023-04-28T05:20:36;101023.31;;;9.16;63.84
58072;BME280;60383;46.626;18.866;2023-04-28T05:23:02;101023.03;;;9.19;63.66
58072;BME280;60383;46.626;18.866;2023-04-28T05:25:27;101024.06;;;8.86;63.21
58072;BME280;60383;46.626;18.866;2023-04-28T05:27:53;101021.81;;;9.12;61.29
58072;BME280;60383;46.626;18.866;2023-04-28T05:30:18;101015.09;;;9.37;61.02
58072;BME280;60383;46.626;18.866;2023-04-28T05:32:44;101020.09;;;9.11;63.31
58072;BME280;60383;46.626;18.866;2023-04-28T05:35:10;101022.09;;;9.61;62.90
58072;BME280;60383;46.626;18.866;2023-04-28T05:37:35;101021.09;;;9.93;61.05
58072;BME280;60383;46.626;18.866;2023-04-28T05:40:02;101022.03;;;10.23;59.45
58072;BME280;60383;46.626;18.866;2023-04-28T05:42:27;101017.28;;;10.25;59.98
58072;BME280;60383;46.626;18.866;2023-04-28T05:44:53;101022.13;;;10.43;59.04
58072;BME280;60383;46.626;18.866;2023-04-28T05:47:18;101020.44;;;10.30;58.18
58072;BME280;60383;46.626;18.866;2023-04-28T05:49:44;101025.16;;;10.69;57.76
58072;BME280;60383;46.626;18.866;2023-04-28T05:52:09;101034.41;;;10.88;58.62
58072;BME280;60383;46.626;18.866;2023-04-28T05:54:35;101026.72;;;11.11;57.18
58072;BME280;60383;46.626;18.866;2023-04-28T05:57:00;101020.34;;;11.10;56.63
58072;BME280;60383;46.626;18.866;2023-04-28T05:59:26;101022.38;;;11.18;56.06
58072;BME280;60383;46.626;18.866;2023-04-28T06:01:52;101026.53;;;11.32;56.83
58072;BME280;60383;46.626;18.866;2023-04-28T06:04:18;101025.66;;;11.41;56.13
58072;BME280;60383;46.626;18.866;2023-04-28T06:06:43;101028.84;;;11.37;56.56
58072;BME280;60383;46.626;18.866;2023-04-28T06:09:09;101022.97;;;10.82;57.03
58072;BME280;60383;46.626;18.866;2023-04-28T06:11:34;101028.44;;;11.31;56.24
58072;BME280;60383;46.626;18.866;2023-04-28T06:14:00;101027.16;;;11.06;56.86
58072;BME280;60383;46.626;18.866;2023-04-28T06:16:25;101022.38;;;11.28;56.78
58072;BME280;60383;46.626;18.866;2023-04-28T06:18:51;101022.06;;;11.31;56.17
58072;BME280;60383;46.626;18.866;2023-04-28T06:21:17;101026.09;;;11.37;56.69
58072;BME280;60383;46.626;18.866;2023-04-28T06:23:43;101030.88;;;11.72;55.63
58072;BME280;60383;46.626;18.866;2023-04-28T06:26:08;101035.88;;;11.87;55.36
58072;BME280;60383;46.626;18.866;2023-04-28T06:28:34;101038.72;;;12.05;57.05
58072;BME280;60383;46.626;18.866;2023-04-28T06:31:00;101048.25;;;12.10;55.22
58072;BME280;60383;46.626;18.866;2023-04-28T06:33:25;101041.47;;;12.33;54.77
58072;BME280;60383;46.626;18.866;2023-04-28T06:35:51;101047.16;;;12.49;54.21
58072;BME280;60383;46.626;18.866;2023-04-28T06:38:17;101038.38;;;12.36;54.17
58072;BME280;60383;46.626;18.866;2023-04-28T06:40:43;101032.66;;;12.29;54.33
58072;BME280;60383;46.626;18.866;2023-04-28T06:43:10;101031.81;;;12.46;54.87
58072;BME280;60383;46.626;18.866;2023-04-28T06:45:36;101026.13;;;12.58;54.20
58072;BME280;60383;46.626;18.866;2023-04-28T06:48:02;101023.50;;;12.74;54.34
58072;BME280;60383;46.626;18.866;2023-04-28T06:50:27;101018.19;;;12.91;53.72
58072;BME280;60383;46.626;18.866;2023-04-28T06:52:53;101023.47;;;12.66;55.00
58072;BME280;60383;46.626;18.866;2023-04-28T06:55:18;101019.34;;;12.88;55.58
58072;BME280;60383;46.626;18.866;2023-04-28T06:57:44;101030.19;;;13.08;53.94
58072;BME280;60383;46.626;18.866;2023-04-28T07:00:10;101033.97;;;12.89;55.70
58072;BME280;60383;46.626;18.866;2023-04-28T07:02:36;101030.31;;;13.24;53.91
58072;BME280;60383;46.626;18.866;2023-04-28T07:05:02;101031.25;;;13.15;54.03
58072;BME280;60383;46.626;18.866;2023-04-28T07:07:28;101032.25;;;13.32;55.14
58072;BME280;60383;46.626;18.866;2023-04-28T07:09:54;101030.97;;;12.64;54.50
58072;BME280;60383;46.626;18.866;2023-04-28T07:12:20;101026.41;;;13.09;55.17
58072;BME280;60383;46.626;18.866;2023-04-28T07:14:46;101038.41;;;13.08;55.19
58072;BME280;60383;46.626;18.866;2023-04-28T07:17:12;101044.09;;;13.51;54.19
58072;BME280;60383;46.626;18.866;2023-04-28T07:19:37;101034.16;;;13.84;52.72
58072;BME280;60383;46.626;18.866;2023-04-28T07:22:03;101031.81;;;13.98;53.26
58072;BME280;60383;46.626;18.866;2023-04-28T07:24:28;101036.03;;;13.31;53.61
58072;BME280;60383;46.626;18.866;2023-04-28T07:26:55;101034.63;;;13.45;53.51
58072;BME280;60383;46.626;18.866;2023-04-28T07:29:21;101038.00;;;13.39;53.45
58072;BME280;60383;46.626;18.866;2023-04-28T07:31:46;101030.88;;;13.10;53.71
58072;BME280;60383;46.626;18.866;2023-04-28T07:34:12;101029.94;;;13.01;52.78
58072;BME280;60383;46.626;18.866;2023-04-28T07:36:37;101026.13;;;13.65;51.90
58072;BME280;60383;46.626;18.866;2023-04-28T07:39:03;101018.22;;;14.04;50.23
58072;BME280;60383;46.626;18.866;2023-04-28T07:41:29;101029.06;;;13.98;49.40
58072;BME280;60383;46.626;18.866;2023-04-28T07:43:54;101021.25;;;14.36;46.83
58072;BME280;60383;46.626;18.866;2023-04-28T07:46:20;101019.72;;;14.33;46.93
58072;BME280;60383;46.626;18.866;2023-04-28T07:48:45;101022.91;;;14.80;45.53
58072;BME280;60383;46.626;18.866;2023-04-28T07:51:11;101014.50;;;14.98;45.64
58072;BME280;60383;46.626;18.866;2023-04-28T07:53:36;101015.13;;;14.59;46.31
58072;BME280;60383;46.626;18.866;2023-04-28T07:56:02;101001.38;;;14.08;48.15
58072;BME280;60383;46.626;18.866;2023-04-28T07:58:27;101004.16;;;14.75;46.15
58072;BME280;60383;46.626;18.866;2023-04-28T08:00:53;101001.22;;;15.01;44.63
58072;BME280;60383;46.626;18.866;2023-04-28T08:03:18;100997.44;;;15.19;43.07
58072;BME280;60383;46.626;18.866;2023-04-28T08:05:43;100989.28;;;15.34;43.45
58072;BME280;60383;46.626;18.866;2023-04-28T08:08:09;100985.88;;;15.07;45.85
58072;BME280;60383;46.626;18.866;2023-04-28T08:10:35;100986.31;;;15.60;44.03
58072;BME280;60383;46.626;18.866;2023-04-28T08:13:02;100978.69;;;15.62;43.92
58072;BME280;60383;46.626;18.866;2023-04-28T08:15:28;100979.72;;;15.70;41.37
58072;BME280;60383;46.626;18.866;2023-04-28T08:17:53;100977.09;;;15.76;39.30
58072;BME280;60383;46.626;18.866;2023-04-28T08:20:19;100973.44;;;15.11;39.90
58072;BME280;60383;46.626;18.866;2023-04-28T08:22:45;100970.19;;;15.16;40.09
58072;BME280;60383;46.626;18.866;2023-04-28T08:25:11;100962.41;;;15.36;38.09
58072;BME280;60383;46.626;18.866;2023-04-28T08:27:36;100965.88;;;14.72;38.32
58072;BME280;60383;46.626;18.866;2023-04-28T08:30:08;100969.16;;;14.67;38.43
58072;BME280;60383;46.626;18.866;2023-04-28T08:32:34;100964.38;;;14.10;40.01
58072;BME280;60383;46.626;18.866;2023-04-28T08:34:59;100968.22;;;14.42;37.98
58072;BME280;60383;46.626;18.866;2023-04-28T08:37:28;100964.63;;;14.42;39.89
58072;BME280;60383;46.626;18.866;2023-04-28T08:39:53;100955.88;;;15.12;39.14
58072;BME280;60383;46.626;18.866;2023-04-28T08:42:29;100961.13;;;15.55;40.05
58072;BME280;60383;46.626;18.866;2023-04-28T08:44:55;100949.13;;;15.79;39.11
58072;BME280;60383;46.626;18.866;2023-04-28T08:47:32;100940.53;;;15.74;39.72
58072;BME280;60383;46.626;18.866;2023-04-28T08:50:02;100936.97;;;15.57;39.11
58072;BME280;60383;46.626;18.866;2023-04-28T08:52:28;100928.25;;;16.17;36.16
58072;BME280;60383;46.626;18.866;2023-04-28T08:54:55;100935.66;;;15.28;37.94
58072;BME280;60383;46.626;18.866;2023-04-28T08:57:25;100936.81;;;15.51;37.01
58072;BME280;60383;46.626;18.866;2023-04-28T08:59:51;100946.75;;;15.68;37.27
58072;BME280;60383;46.626;18.866;2023-04-28T09:02:17;100933.06;;;15.91;37.28
58072;BME280;60383;46.626;18.866;2023-04-28T09:04:43;100932.00;;;16.24;36.61
58072;BME280;60383;46.626;18.866;2023-04-28T09:07:12;100924.16;;;16.12;35.72
58072;BME280;60383;46.626;18.866;2023-04-28T09:09:39;100929.19;;;16.32;33.79
58072;BME280;60383;46.626;18.866;2023-04-28T09:12:05;100924.03;;;16.29;36.28
58072;BME280;60383;46.626;18.866;2023-04-28T09:14:33;100913.06;;;16.44;34.70
58072;BME280;60383;46.626;18.866;2023-04-28T09:17:00;100919.78;;;16.41;37.72
58072;BME280;60383;46.626;18.866;2023-04-28T09:19:33;100923.66;;;16.79;34.62
58072;BME280;60383;46.626;18.866;2023-04-28T09:22:00;100935.78;;;16.54;33.36
58072;BME280;60383;46.626;18.866;2023-04-28T09:24:33;100928.72;;;16.90;33.83
58072;BME280;60383;46.626;18.866;2023-04-28T09:27:00;100933.94;;;17.08;33.20
58072;BME280;60383;46.626;18.866;2023-04-28T09:29:27;100936.63;;;17.16;30.81
58072;BME280;60383;46.626;18.866;2023-04-28T09:31:52;100924.81;;;17.37;32.31
58072;BME280;60383;46.626;18.866;2023-04-28T09:34:19;100933.13;;;17.22;34.67
58072;BME280;60383;46.626;18.866;2023-04-28T09:36:44;100932.09;;;16.07;32.32
58072;BME280;60383;46.626;18.866;2023-04-28T09:39:10;100926.28;;;16.72;33.69
58072;BME280;60383;46.626;18.866;2023-04-28T09:41:40;100922.53;;;16.65;31.94
58072;BME280;60383;46.626;18.866;2023-04-28T09:44:17;100920.59;;;16.73;33.86
58072;BME280;60383;46.626;18.866;2023-04-28T09:46:44;100914.59;;;17.23;33.58
58072;BME280;60383;46.626;18.866;2023-04-28T09:49:11;100914.09;;;16.43;34.14
58072;BME280;60383;46.626;18.866;2023-04-28T09:51:37;100907.63;;;16.89;35.08
58072;BME280;60383;46.626;18.866;2023-04-28T09:54:03;100917.94;;;17.18;34.48
58072;BME280;60383;46.626;18.866;2023-04-28T09:56:32;100915.59;;;16.92;34.39
58072;BME280;60383;46.626;18.866;2023-04-28T09:58:59;100907.09;;;16.93;32.65
58072;BME280;60383;46.626;18.866;2023-04-28T10:01:27;100909.59;;;16.42;35.40
58072;BME280;60383;46.626;18.866;2023-04-28T10:03:59;100909.88;;;16.93;33.32
58072;BME280;60383;46.626;18.866;2023-04-28T10:06:24;100907.53;;;16.82;33.37
58072;BME280;60383;46.626;18.866;2023-04-28T10:08:52;100906.94;;;16.72;34.27
58072;BME280;60383;46.626;18.866;2023-04-28T10:11:17;100899.81;;;17.46;31.89
58072;BME280;60383;46.626;18.866;2023-04-28T10:13:45;100892.53;;;17.00;32.56
58072;BME280;60383;46.626;18.866;2023-04-28T10:16:11;100891.22;;;17.26;33.10
58072;BME280;60383;46.626;18.866;2023-04-28T10:18:39;100888.44;;;17.40;32.25
58072;BME280;60383;46.626;18.866;2023-04-28T10:21:05;100884.63;;;16.97;34.43
58072;BME280;60383;46.626;18.866;2023-04-28T10:24:08;100876.91;;;17.37;33.40
58072;BME280;60383;46.626;18.866;2023-04-28T10:26:57;100871.50;;;17.95;32.62
58072;BME280;60383;46.626;18.866;2023-04-28T10:29:26;100873.97;;;17.75;32.38
58072;BME280;60383;46.626;18.866;2023-04-28T10:32:14;100859.78;;;17.63;32.19
58072;BME280;60383;46.626;18.866;2023-04-28T10:34:40;100872.59;;;17.49;32.79
58072;BME280;60383;46.626;18.866;2023-04-28T10:37:05;100860.97;;;17.39;32.87
58072;BME280;60383;46.626;18.866;2023-04-28T10:39:31;100850.75;;;17.39;33.42
58072;BME280;60383;46.626;18.866;2023-04-28T10:41:57;100852.19;;;17.05;35.05
58072;BME280;60383;46.626;18.866;2023-04-28T10:47:07;100846.47;;;16.69;34.81
58072;BME280;60383;46.626;18.866;2023-04-28T10:55:32;100828.72;;;17.83;34.27
58072;BME280;60383;46.626;18.866;2023-04-28T11:00:42;100832.31;;;18.20;32.42
58072;BME280;60383;46.626;18.866;2023-04-28T11:06:24;100838.59;;;18.07;33.15
58072;BME280;60383;46.626;18.866;2023-04-28T11:09:02;100816.78;;;17.31;34.51
58072;BME280;60383;46.626;18.866;2023-04-28T11:11:32;100812.19;;;17.75;33.13
58072;BME280;60383;46.626;18.866;2023-04-28T11:17:05;100797.38;;;17.46;33.23
58072;BME280;60383;46.626;18.866;2023-04-28T11:19:36;100801.78;;;17.77;33.40
58072;BME280;60383;46.626;18.866;2023-04-28T11:22:12;100801.91;;;17.68;33.04
58072;BME280;60383;46.626;18.866;2023-04-28T11:24:37;100796.00;;;17.56;32.73
58072;BME280;60383;46.626;18.866;2023-04-28T11:27:03;100793.28;;;17.42;33.96
58072;BME280;60383;46.626;18.866;2023-04-28T11:29:34;100793.88;;;17.22;34.75
58072;BME280;60383;46.626;18.866;2023-04-28T11:32:01;100797.00;;;17.34;33.92
58072;BME280;60383;46.626;18.866;2023-04-28T11:34:26;100794.06;;;17.20;34.63
58072;BME280;60383;46.626;18.866;2023-04-28T11:36:52;100785.88;;;17.12;34.21
58072;BME280;60383;46.626;18.866;2023-04-28T11:39:25;100777.91;;;16.49;35.24
58072;BME280;60383;46.626;18.866;2023-04-28T11:41:53;100778.91;;;17.16;35.04
58072;BME280;60383;46.626;18.866;2023-04-28T11:44:25;100779.75;;;17.32;34.03
58072;BME280;60383;46.626;18.866;2023-04-28T11:46:56;100769.69;;;18.04;33.94
58072;BME280;60383;46.626;18.866;2023-04-28T11:49:25;100765.44;;;18.30;32.76
58072;BME280;60383;46.626;18.866;2023-04-28T11:52:04;100788.75;;;18.35;32.69
58072;BME280;60383;46.626;18.866;2023-04-28T11:54:31;100779.47;;;18.00;32.91
58072;BME280;60383;46.626;18.866;2023-04-28T11:56:57;100775.50;;;18.09;31.83
58072;BME280;60383;46.626;18.866;2023-04-28T11:59:33;100782.88;;;18.02;33.75
58072;BME280;60383;46.626;18.866;2023-04-28T12:02:01;100777.00;;;17.90;32.26
58072;BME280;60383;46.626;18.866;2023-04-28T12:07:06;100757.91;;;16.77;34.15
58072;BME280;60383;46.626;18.866;2023-04-28T12:09:35;100743.06;;;17.66;35.15
58072;BME280;60383;46.626;18.866;2023-04-28T12:12:03;100744.75;;;17.46;33.50
58072;BME280;60383;46.626;18.866;2023-04-28T12:14:31;100739.59;;;17.79;36.01
58072;BME280;60383;46.626;18.866;2023-04-28T12:17:00;100742.34;;;17.21;34.81
58072;BME280;60383;46.626;18.866;2023-04-28T12:19:26;100729.88;;;17.47;34.51
58072;BME280;60383;46.626;18.866;2023-04-28T12:22:05;100731.69;;;18.19;32.88
58072;BME280;60383;46.626;18.866;2023-04-28T12:24:32;100743.72;;;18.62;34.70
58072;BME280;60383;46.626;18.866;2023-04-28T12:27:18;100725.94;;;17.99;34.38
58072;BME280;60383;46.626;18.866;2023-04-28T12:29:49;100720.34;;;17.71;34.77
58072;BME280;60383;46.626;18.866;2023-04-28T12:32:15;100711.75;;;18.09;33.96
58072;BME280;60383;46.626;18.866;2023-04-28T12:34:43;100707.28;;;18.36;34.09
58072;BME280;60383;46.626;18.866;2023-04-28T12:37:08;100709.13;;;18.58;32.65
58072;BME280;60383;46.626;18.866;2023-04-28T12:39:35;100705.59;;;18.14;33.14
58072;BME280;60383;46.626;18.866;2023-04-28T12:42:02;100705.34;;;18.37;33.99
58072;BME280;60383;46.626;18.866;2023-04-28T12:44:37;100679.72;;;18.63;34.08
58072;BME280;60383;46.626;18.866;2023-04-28T12:47:05;100677.34;;;18.60;32.56
58072;BME280;60383;46.626;18.866;2023-04-28T12:49:31;100673.94;;;18.30;32.53
58072;BME280;60383;46.626;18.866;2023-04-28T12:51:57;100678.84;;;17.99;33.89
58072;BME280;60383;46.626;18.866;2023-04-28T12:54:22;100657.06;;;18.18;33.38
58072;BME280;60383;46.626;18.866;2023-04-28T12:56:48;100666.78;;;18.07;34.74
58072;BME280;60383;46.626;18.866;2023-04-28T12:59:14;100663.63;;;18.45;34.61
58072;BME280;60383;46.626;18.866;2023-04-28T13:01:39;100652.31;;;18.12;33.87
58072;BME280;60383;46.626;18.866;2023-04-28T13:04:05;100644.53;;;18.00;35.21